createdAt,value
2022-12-29T00:00:14.264Z,96032.63
2022-12-29T00:02:42.788Z,96030.34
2022-12-29T00:05:09.609Z,96023.16
2022-12-29T00:07:36.077Z,96030.97
2022-12-29T00:10:02.729Z,96042.25
2022-12-29T00:12:49.098Z,96036.59
2022-12-29T00:15:34.263Z,96032.88
2022-12-29T00:18:00.725Z,96027.13
2022-12-29T00:20:45.823Z,96026.44
2022-12-29T00:23:30.756Z,96024.00
2022-12-29T00:26:15.706Z,96032.34
2022-12-29T00:29:00.562Z,96021.75
2022-12-29T00:31:45.510Z,96027.28
2022-12-29T00:34:31.184Z,96028.75
2022-12-29T00:36:58.015Z,96028.75
2022-12-29T00:39:42.811Z,96031.81
2022-12-29T00:42:28.780Z,96025.38
2022-12-29T00:44:55.277Z,96034.88
2022-12-29T00:47:21.742Z,96048.28
2022-12-29T00:49:48.195Z,96037.56
2022-12-29T00:52:15.011Z,96028.91
2022-12-29T00:54:42.053Z,96024.44
2022-12-29T00:57:10.060Z,96031.28
2022-12-29T00:59:37.129Z,96025.75
2022-12-29T01:02:03.867Z,96032.63
2022-12-29T01:04:30.545Z,96029.06
2022-12-29T01:06:57.010Z,96035.09
2022-12-29T01:09:42.610Z,96028.22
2022-12-29T01:12:10.344Z,96028.50
2022-12-29T01:14:37.781Z,96024.91
2022-12-29T01:17:04.553Z,96022.00
2022-12-29T01:19:31.022Z,96015.31
2022-12-29T01:21:57.613Z,96016.41
2022-12-29T01:24:24.094Z,96019.97
2022-12-29T01:26:50.689Z,96004.19
2022-12-29T01:29:17.538Z,95997.47
2022-12-29T01:31:44.684Z,95992.84
2022-12-29T01:34:11.191Z,96001.34
2022-12-29T01:36:37.641Z,95990.63
2022-12-29T01:39:04.151Z,95999.69
2022-12-29T01:41:30.631Z,95998.75
2022-12-29T01:43:58.282Z,96006.56
2022-12-29T01:46:27.461Z,95997.09
2022-12-29T01:48:56.450Z,95996.38
2022-12-29T01:51:24.463Z,95993.59
2022-12-29T01:53:51.439Z,95988.91
2022-12-29T01:56:20.604Z,95992.44
2022-12-29T01:58:49.647Z,95985.84
2022-12-29T02:01:16.871Z,95982.16
2022-12-29T02:03:44.890Z,95989.81
2022-12-29T02:06:14.744Z,95992.44
2022-12-29T02:08:41.906Z,95996.13
2022-12-29T02:11:08.520Z,95994.38
2022-12-29T02:13:35.503Z,95994.88
2022-12-29T02:16:13.256Z,95994.59
2022-12-29T02:18:39.717Z,95986.50
2022-12-29T02:21:09.253Z,95988.94
2022-12-29T02:23:51.029Z,95984.38
2022-12-29T02:26:29.169Z,95988.25
2022-12-29T02:28:55.688Z,95977.84
2022-12-29T02:31:22.212Z,95968.66
2022-12-29T02:33:57.145Z,95978.13
2022-12-29T02:36:38.831Z,95980.06
2022-12-29T02:39:24.147Z,95978.13
2022-12-29T02:42:04.547Z,95964.41
2022-12-29T02:44:51.273Z,95976.31
2022-12-29T02:47:23.580Z,95977.84
2022-12-29T02:49:58.827Z,95974.25
2022-12-29T02:52:31.467Z,95969.31
2022-12-29T02:54:59.461Z,95975.91
2022-12-29T02:57:26.607Z,95979.47
2022-12-29T02:59:55.409Z,95972.47
2022-12-29T03:02:37.141Z,95989.31
2022-12-29T03:05:03.615Z,95981.88
2022-12-29T03:07:36.230Z,95978.13
2022-12-29T03:10:11.094Z,95979.94
2022-12-29T03:12:59.465Z,95982.91
2022-12-29T03:15:49.929Z,95973.78
2022-12-29T03:18:34.747Z,95987.81
2022-12-29T03:21:09.109Z,95990.13
2022-12-29T03:23:37.277Z,95988.34
2022-12-29T03:26:06.597Z,95993.25
2022-12-29T03:28:36.218Z,95986.53
2022-12-29T03:31:04.828Z,95997.66
2022-12-29T03:33:33.381Z,95996.31
2022-12-29T03:36:02.556Z,96008.09
2022-12-29T03:38:34.571Z,96005.84
2022-12-29T03:41:04.353Z,95997.06
2022-12-29T03:43:31.001Z,95996.38
2022-12-29T03:45:57.520Z,96003.59
2022-12-29T03:48:23.999Z,95990.28
2022-12-29T03:50:50.655Z,95979.16
2022-12-29T03:53:17.129Z,95979.69
2022-12-29T03:55:43.535Z,95978.53
2022-12-29T03:58:09.947Z,95974.22
2022-12-29T04:00:36.401Z,95963.50
2022-12-29T04:03:03.084Z,95962.06
2022-12-29T04:05:29.600Z,95965.50
2022-12-29T04:07:56.047Z,95958.34
2022-12-29T04:10:22.526Z,95951.84
2022-12-29T04:12:48.985Z,95951.03
2022-12-29T04:15:15.488Z,95949.88
2022-12-29T04:17:42.000Z,95948.59
2022-12-29T04:20:27.515Z,95944.06
2022-12-29T04:23:04.414Z,95939.78
2022-12-29T04:25:34.612Z,95942.72
2022-12-29T04:28:01.258Z,95936.22
2022-12-29T04:30:27.867Z,95940.09
2022-12-29T04:32:54.423Z,95936.53
2022-12-29T04:35:20.865Z,95946.81
2022-12-29T04:37:47.330Z,95954.66
2022-12-29T04:40:13.829Z,95962.34
2022-12-29T04:42:40.353Z,95973.47
2022-12-29T04:45:07.163Z,95971.66
2022-12-29T04:47:33.801Z,95963.00
2022-12-29T04:50:01.205Z,95949.28
2022-12-29T04:52:27.677Z,95943.06
2022-12-29T04:54:54.168Z,95950.31
2022-12-29T04:57:20.764Z,95950.63
2022-12-29T04:59:47.248Z,95935.75
2022-12-29T05:02:13.875Z,95940.81
2022-12-29T05:04:40.927Z,95943.28
2022-12-29T05:07:07.425Z,95951.78
2022-12-29T05:09:33.995Z,95965.34
2022-12-29T05:12:00.798Z,95959.81
2022-12-29T05:14:27.337Z,95956.84
2022-12-29T05:16:53.845Z,95958.00
2022-12-29T05:19:20.331Z,95962.69
2022-12-29T05:21:46.797Z,95960.44
2022-12-29T05:24:13.228Z,95946.41
2022-12-29T05:26:39.646Z,95950.31
2022-12-29T05:29:06.128Z,95941.19
2022-12-29T05:31:32.698Z,95946.13
2022-12-29T05:33:59.170Z,95947.75
2022-12-29T05:36:25.654Z,95947.75
2022-12-29T05:38:52.065Z,95939.25
2022-12-29T05:41:18.584Z,95929.31
2022-12-29T05:43:45.022Z,95920.97
2022-12-29T05:46:11.501Z,95925.81
2022-12-29T05:48:38.467Z,95934.28
2022-12-29T05:51:05.132Z,95937.41
2022-12-29T05:53:31.613Z,95939.25
2022-12-29T05:55:58.100Z,95934.53
2022-12-29T05:58:24.616Z,95938.13
2022-12-29T06:00:51.673Z,95943.34
2022-12-29T06:03:18.425Z,95941.53
2022-12-29T06:05:47.795Z,95939.75
2022-12-29T06:08:14.326Z,95932.91
2022-12-29T06:10:40.811Z,95933.69
2022-12-29T06:13:07.422Z,95935.97
2022-12-29T06:15:34.485Z,95939.25
2022-12-29T06:18:01.253Z,95934.69
2022-12-29T06:20:27.679Z,95940.22
2022-12-29T06:22:54.137Z,95944.09
2022-12-29T06:25:20.624Z,95950.00
2022-12-29T06:27:47.162Z,95943.50
2022-12-29T06:30:14.041Z,95945.28
2022-12-29T06:32:40.757Z,95943.63
2022-12-29T06:35:07.351Z,95949.31
2022-12-29T06:37:33.831Z,95946.91
2022-12-29T06:40:00.347Z,95953.63
2022-12-29T06:42:26.796Z,95969.00
2022-12-29T06:44:53.437Z,95975.72
2022-12-29T06:47:19.991Z,95977.16
2022-12-29T06:49:46.627Z,95969.66
2022-12-29T06:52:14.067Z,95959.22
2022-12-29T06:54:40.794Z,95966.91
2022-12-29T06:57:07.387Z,95957.56
2022-12-29T06:59:33.899Z,95963.09
2022-12-29T07:02:00.523Z,95968.63
2022-12-29T07:04:27.192Z,95967.38
2022-12-29T07:06:53.660Z,95961.69
2022-12-29T07:09:20.145Z,95971.97
2022-12-29T07:11:46.623Z,95978.03
2022-12-29T07:14:13.082Z,95975.38
2022-12-29T07:16:39.899Z,95975.50
2022-12-29T07:19:06.813Z,95974.06
2022-12-29T07:21:33.683Z,95960.19
2022-12-29T07:24:00.382Z,95962.50
2022-12-29T07:26:30.292Z,95972.25
2022-12-29T07:29:01.054Z,95975.06
2022-12-29T07:31:27.522Z,95980.28
2022-12-29T07:33:53.980Z,95978.81
2022-12-29T07:36:20.674Z,95977.19
2022-12-29T07:38:47.077Z,95967.53
2022-12-29T07:41:13.677Z,95971.56
2022-12-29T07:43:40.647Z,95975.97
2022-12-29T07:46:07.275Z,95978.41
2022-12-29T07:48:36.948Z,95978.47
2022-12-29T07:51:03.473Z,95978.69
2022-12-29T07:53:30.529Z,95984.44
2022-12-29T07:55:57.046Z,95982.47
2022-12-29T07:58:23.581Z,95975.44
2022-12-29T08:00:53.936Z,95977.75
2022-12-29T08:03:20.439Z,95971.41
2022-12-29T08:05:46.957Z,95967.66
2022-12-29T08:08:13.426Z,95969.16
2022-12-29T08:10:39.864Z,95969.81
2022-12-29T08:13:06.344Z,95970.41
2022-12-29T08:15:32.919Z,95957.50
2022-12-29T08:18:00.058Z,95969.81
2022-12-29T08:20:26.483Z,95975.41
2022-12-29T08:22:52.897Z,95973.94
2022-12-29T08:25:20.626Z,95980.31
2022-12-29T08:27:47.305Z,95970.84
2022-12-29T08:30:14.017Z,95961.69
2022-12-29T08:32:40.464Z,95955.97
2022-12-29T08:35:07.040Z,95963.78
2022-12-29T08:37:34.474Z,95961.34
2022-12-29T08:40:04.511Z,95960.38
2022-12-29T08:42:32.274Z,95961.84
2022-12-29T08:45:01.586Z,95957.47
2022-12-29T08:47:28.486Z,95968.09
2022-12-29T08:49:55.079Z,95966.94
2022-12-29T08:52:21.582Z,95981.34
2022-12-29T08:54:48.053Z,95982.34
2022-12-29T08:57:14.585Z,95982.53
2022-12-29T08:59:41.118Z,95976.16
2022-12-29T09:02:11.248Z,95972.59
2022-12-29T09:04:37.799Z,95982.34
2022-12-29T09:07:04.274Z,95983.94
2022-12-29T09:09:30.800Z,95977.22
2022-12-29T09:11:57.255Z,95980.03
2022-12-29T09:14:23.946Z,95989.88
2022-12-29T09:17:10.464Z,95975.16
2022-12-29T09:19:36.938Z,95968.47
2022-12-29T09:22:04.075Z,95965.69
2022-12-29T09:24:30.575Z,95974.72
2022-12-29T09:26:57.059Z,95969.66
2022-12-29T09:29:23.529Z,95964.59
2022-12-29T09:31:50.474Z,95960.47
2022-12-29T09:34:16.936Z,95957.75
2022-12-29T09:36:43.460Z,95958.09
2022-12-29T09:39:09.877Z,95946.81
2022-12-29T09:41:40.155Z,95956.94
2022-12-29T09:44:12.142Z,95955.97
2022-12-29T09:46:41.170Z,95950.75
2022-12-29T09:49:13.407Z,95946.66
2022-12-29T09:51:42.542Z,95946.66
2022-12-29T09:54:14.862Z,95944.72
2022-12-29T09:56:41.663Z,95940.31
2022-12-29T09:59:20.317Z,95939.97
2022-12-29T10:02:06.127Z,95946.53
2022-12-29T10:04:32.743Z,95942.94
2022-12-29T10:07:28.446Z,95936.88
2022-12-29T10:10:11.532Z,95928.75
2022-12-29T10:12:41.051Z,95924.97
2022-12-29T10:15:15.361Z,95928.91
2022-12-29T10:17:41.862Z,95911.88
2022-12-29T10:20:23.688Z,95920.72
2022-12-29T10:23:03.153Z,95917.00
2022-12-29T10:25:33.182Z,95916.50
2022-12-29T10:28:04.502Z,95919.63
2022-12-29T10:30:33.061Z,95926.16
2022-12-29T10:33:02.907Z,95928.28
2022-12-29T10:35:35.056Z,95917.50
2022-12-29T10:38:12.205Z,95910.28
2022-12-29T10:40:44.175Z,95910.13
2022-12-29T10:43:25.128Z,95916.03
2022-12-29T10:45:53.324Z,95915.69
2022-12-29T10:48:30.195Z,95912.91
2022-12-29T10:51:01.918Z,95918.16
2022-12-29T10:53:34.257Z,95915.22
2022-12-29T10:56:02.372Z,95916.50
2022-12-29T10:58:30.090Z,95909.66
2022-12-29T11:00:56.679Z,95898.53
2022-12-29T11:03:32.297Z,95902.31
2022-12-29T11:06:03.629Z,95903.44
2022-12-29T11:08:34.443Z,95903.09
2022-12-29T11:11:02.455Z,95901.16
2022-12-29T11:13:36.524Z,95900.81
2022-12-29T11:16:05.408Z,95903.75
2022-12-29T11:18:38.381Z,95888.72
2022-12-29T11:21:24.431Z,95894.25
2022-12-29T11:23:58.691Z,95897.69
2022-12-29T11:26:31.758Z,95900.16
2022-12-29T11:29:15.697Z,95899.81
2022-12-29T11:31:43.147Z,95885.91
2022-12-29T11:34:09.748Z,95886.25
2022-12-29T11:36:36.930Z,95884.56
2022-12-29T11:39:07.613Z,95873.91
2022-12-29T11:41:37.017Z,95869.81
2022-12-29T11:44:06.169Z,95867.03
2022-12-29T11:46:34.858Z,95863.72
2022-12-29T11:49:02.543Z,95868.94
2022-12-29T11:51:31.315Z,95859.06
2022-12-29T11:53:59.370Z,95865.28
2022-12-29T11:56:41.470Z,95868.19
2022-12-29T11:59:23.271Z,95855.75
2022-12-29T12:01:49.891Z,95860.63
2022-12-29T12:04:18.232Z,95865.09
2022-12-29T12:06:47.294Z,95862.94
2022-12-29T12:09:28.538Z,95844.72
2022-12-29T12:11:55.810Z,95852.09
2022-12-29T12:14:28.743Z,95852.41
2022-12-29T12:16:56.949Z,95861.41
2022-12-29T12:19:44.437Z,95858.25
2022-12-29T12:22:25.917Z,95868.75
2022-12-29T12:24:55.331Z,95865.13
2022-12-29T12:27:44.594Z,95858.13
2022-12-29T12:30:17.000Z,95853.06
2022-12-29T12:32:52.370Z,95850.31
2022-12-29T12:35:25.161Z,95844.59
2022-12-29T12:38:00.440Z,95843.28
2022-12-29T12:40:26.903Z,95844.91
2022-12-29T12:43:12.394Z,95846.91
2022-12-29T12:45:51.652Z,95845.91
2022-12-29T12:48:23.933Z,95847.22
2022-12-29T12:51:00.488Z,95841.69
2022-12-29T12:53:38.074Z,95837.97
2022-12-29T12:56:17.011Z,95837.16
2022-12-29T12:58:56.816Z,95843.22
2022-12-29T13:01:42.134Z,95836.81
2022-12-29T13:04:13.880Z,95830.59
2022-12-29T13:06:48.054Z,95817.94
2022-12-29T13:09:25.162Z,95835.66
2022-12-29T13:11:54.417Z,95845.34
2022-12-29T13:14:29.950Z,95846.47
2022-12-29T13:17:16.652Z,95834.25
2022-12-29T13:19:46.224Z,95840.75
2022-12-29T13:22:12.998Z,95842.06
2022-12-29T13:24:48.367Z,95848.13
2022-12-29T13:27:24.432Z,95848.13
2022-12-29T13:30:00.129Z,95838.31
2022-12-29T13:32:28.319Z,95835.25
2022-12-29T13:35:03.988Z,95835.75
2022-12-29T13:37:32.600Z,95835.97
2022-12-29T13:40:02.577Z,95838.28
2022-12-29T13:42:29.609Z,95846.16
2022-12-29T13:45:01.985Z,95851.38
2022-12-29T13:47:32.168Z,95850.91
2022-12-29T13:49:59.787Z,95848.44
2022-12-29T13:52:33.618Z,95850.56
2022-12-29T13:55:10.645Z,95859.91
2022-12-29T13:57:59.831Z,95859.59
2022-12-29T14:00:28.302Z,95854.66
2022-12-29T14:03:05.583Z,95854.19
2022-12-29T14:05:33.060Z,95860.41
2022-12-29T14:08:01.229Z,95871.34
2022-12-29T14:10:39.039Z,95873.31
2022-12-29T14:13:11.552Z,95876.94
2022-12-29T14:15:43.301Z,95885.09
2022-12-29T14:18:15.457Z,95884.13
2022-12-29T14:20:52.072Z,95883.81
2022-12-29T14:23:27.902Z,95874.28
2022-12-29T14:25:57.502Z,95874.31
2022-12-29T14:28:33.991Z,95870.03
2022-12-29T14:31:05.013Z,95882.78
2022-12-29T14:33:32.853Z,95881.16
2022-12-29T14:36:19.232Z,95886.72
2022-12-29T14:38:46.925Z,95884.38
2022-12-29T14:41:20.977Z,95889.94
2022-12-29T14:43:59.905Z,95889.00
2022-12-29T14:46:26.791Z,95895.19
2022-12-29T14:49:02.166Z,95889.94
2022-12-29T14:51:31.834Z,95890.56
2022-12-29T14:53:58.352Z,95891.25
2022-12-29T14:56:26.927Z,95894.69
2022-12-29T14:58:53.556Z,95890.63
2022-12-29T15:01:28.450Z,95905.81
2022-12-29T15:03:59.803Z,95897.47
2022-12-29T15:06:29.055Z,95904.03
2022-12-29T15:09:01.145Z,95901.75
2022-12-29T15:11:42.861Z,95901.69
2022-12-29T15:14:28.170Z,95903.31
2022-12-29T15:16:54.706Z,95905.13
2022-12-29T15:19:25.112Z,95905.81
2022-12-29T15:21:52.122Z,95903.31
2022-12-29T15:24:18.621Z,95897.44
2022-12-29T15:26:51.025Z,95901.94
2022-12-29T15:29:35.975Z,95909.44
2022-12-29T15:32:12.850Z,95906.81
2022-12-29T15:34:39.687Z,95899.97
2022-12-29T15:37:07.684Z,95898.31
2022-12-29T15:39:34.463Z,95897.81
2022-12-29T15:42:07.991Z,95895.06
2022-12-29T15:44:39.367Z,95889.50
2022-12-29T15:47:06.954Z,95889.03
2022-12-29T15:49:34.019Z,95896.69
2022-12-29T15:52:00.555Z,95902.56
2022-12-29T15:54:30.781Z,95895.66
2022-12-29T15:56:57.229Z,95894.66
2022-12-29T15:59:34.504Z,95896.94
2022-12-29T16:02:04.788Z,95892.38
2022-12-29T16:04:48.415Z,95898.84
2022-12-29T16:07:37.329Z,95883.50
2022-12-29T16:10:23.295Z,95888.53
2022-12-29T16:12:49.964Z,95877.91
2022-12-29T16:15:16.507Z,95878.22
2022-12-29T16:17:48.468Z,95888.94
2022-12-29T16:20:18.152Z,95910.19
2022-12-29T16:22:49.502Z,95903.69
2022-12-29T16:25:22.117Z,95895.50
2022-12-29T16:27:48.794Z,95902.31
2022-12-29T16:30:34.587Z,95910.47
2022-12-29T16:33:05.633Z,95911.84
2022-12-29T16:35:44.366Z,95904.63
2022-12-29T16:38:18.389Z,95907.91
2022-12-29T16:40:57.926Z,95901.66
2022-12-29T16:43:35.707Z,95896.59
2022-12-29T16:46:02.303Z,95902.31
2022-12-29T16:48:29.948Z,95887.66
2022-12-29T16:51:06.984Z,95889.59
2022-12-29T16:53:48.155Z,95886.00
2022-12-29T16:56:16.329Z,95886.84
2022-12-29T16:58:49.135Z,95887.72
2022-12-29T17:01:19.876Z,95896.91
2022-12-29T17:03:58.799Z,95896.81
2022-12-29T17:06:25.362Z,95888.81
2022-12-29T17:08:52.098Z,95884.72
2022-12-29T17:12:02.547Z,95885.84
2022-12-29T17:14:53.772Z,95887.31
2022-12-29T17:17:34.171Z,95893.41
2022-12-29T17:20:14.848Z,95882.94
2022-12-29T17:22:41.292Z,95893.06
2022-12-29T17:25:09.355Z,95891.47
2022-12-29T17:27:41.751Z,95889.50
2022-12-29T17:30:20.256Z,95888.19
2022-12-29T17:32:51.701Z,95885.72
2022-12-29T17:35:19.390Z,95892.72
2022-12-29T17:37:46.192Z,95892.06
2022-12-29T17:40:16.924Z,95895.06
2022-12-29T17:42:47.819Z,95904.53
2022-12-29T17:45:18.631Z,95905.88
2022-12-29T17:47:45.219Z,95904.72
2022-12-29T17:50:12.699Z,95907.81
2022-12-29T17:52:39.275Z,95905.84
2022-12-29T17:55:05.964Z,95910.06
2022-12-29T17:57:32.418Z,95916.25
2022-12-29T17:59:58.836Z,95912.97
2022-12-29T18:02:27.357Z,95915.97
2022-12-29T18:04:54.072Z,95915.31
2022-12-29T18:07:20.640Z,95900.63
2022-12-29T18:09:47.313Z,95898.66
2022-12-29T18:12:37.501Z,95899.28
2022-12-29T18:15:04.584Z,95887.66
2022-12-29T18:17:31.043Z,95889.09
2022-12-29T18:19:57.540Z,95897.09
2022-12-29T18:22:24.582Z,95895.66
2022-12-29T18:24:51.585Z,95883.09
2022-12-29T18:27:19.568Z,95894.03
2022-12-29T18:29:46.896Z,95894.03
2022-12-29T18:32:13.896Z,95891.44
2022-12-29T18:34:41.012Z,95888.81
2022-12-29T18:37:07.670Z,95880.31
2022-12-29T18:39:34.150Z,95885.03
2022-12-29T18:42:00.639Z,95892.72
2022-12-29T18:44:28.299Z,95887.16
2022-12-29T18:46:55.216Z,95888.84
2022-12-29T18:49:21.756Z,95884.94
2022-12-29T18:51:48.265Z,95893.59
2022-12-29T18:54:25.523Z,95898.81
2022-12-29T18:56:52.043Z,95890.97
2022-12-29T18:59:18.489Z,95893.13
2022-12-29T19:01:45.008Z,95893.13
2022-12-29T19:04:14.484Z,95881.69
2022-12-29T19:06:41.047Z,95884.31
2022-12-29T19:09:07.617Z,95872.84
2022-12-29T19:11:34.467Z,95876.13
2022-12-29T19:14:00.942Z,95876.13
2022-12-29T19:16:27.455Z,95872.06
2022-12-29T19:19:08.880Z,95879.06
2022-12-29T19:21:36.858Z,95877.75
2022-12-29T19:24:03.519Z,95891.31
2022-12-29T19:26:31.445Z,95882.19
2022-12-29T19:28:57.999Z,95889.03
2022-12-29T19:31:24.499Z,95891.47
2022-12-29T19:33:51.097Z,95869.41
2022-12-29T19:36:18.021Z,95887.06
2022-12-29T19:38:46.095Z,95874.63
2022-12-29T19:41:13.100Z,95872.50
2022-12-29T19:43:39.568Z,95877.13
2022-12-29T19:46:07.334Z,95877.44
2022-12-29T19:48:34.105Z,95876.78
2022-12-29T19:51:04.593Z,95872.84
2022-12-29T19:53:31.057Z,95877.78
2022-12-29T19:55:57.518Z,95874.19
2022-12-29T19:58:23.956Z,95870.91
2022-12-29T20:00:51.372Z,95878.09
2022-12-29T20:03:19.263Z,95870.41
2022-12-29T20:05:49.572Z,95871.22
2022-12-29T20:08:16.050Z,95873.19
2022-12-29T20:10:42.542Z,95884.28
2022-12-29T20:13:08.975Z,95880.19
2022-12-29T20:15:35.518Z,95885.41
2022-12-29T20:18:17.301Z,95883.28
2022-12-29T20:20:43.887Z,95878.66
2022-12-29T20:23:10.357Z,95885.63
2022-12-29T20:25:45.566Z,95886.16
2022-12-29T20:28:13.012Z,95875.06
2022-12-29T20:30:39.551Z,95873.25
2022-12-29T20:33:08.343Z,95866.41
2022-12-29T20:35:35.560Z,95859.84
2022-12-29T20:38:02.025Z,95864.44
2022-12-29T20:40:28.507Z,95857.75
2022-12-29T20:42:55.046Z,95864.31
2022-12-29T20:45:21.738Z,95848.63
2022-12-29T20:47:48.215Z,95843.06
2022-12-29T20:50:14.697Z,95846.31
2022-12-29T20:52:41.159Z,95845.19
2022-12-29T20:55:07.728Z,95838.84
2022-12-29T20:57:57.015Z,95838.66
2022-12-29T21:00:22.661Z,95841.28
2022-12-29T21:02:49.907Z,95844.25
2022-12-29T21:05:24.886Z,95851.91
2022-12-29T21:07:52.766Z,95846.19
2022-12-29T21:10:19.440Z,95854.88
2022-12-29T21:12:45.964Z,95858.47
2022-12-29T21:15:14.528Z,95868.88
2022-12-29T21:17:41.708Z,95864.78
2022-12-29T21:20:08.408Z,95858.09
2022-12-29T21:22:34.847Z,95854.53
2022-12-29T21:25:01.290Z,95855.88
2022-12-29T21:27:27.778Z,95853.09
2022-12-29T21:29:54.205Z,95852.28
2022-12-29T21:32:20.667Z,95861.91
2022-12-29T21:34:47.123Z,95868.47
2022-12-29T21:37:17.272Z,95883.66
2022-12-29T21:39:46.482Z,95895.44
2022-12-29T21:42:12.958Z,95896.09
2022-12-29T21:44:57.912Z,95889.88
2022-12-29T21:47:24.391Z,95882.88
2022-12-29T21:49:50.807Z,95872.25
2022-12-29T21:52:17.236Z,95875.84
2022-12-29T21:55:01.843Z,95882.03
2022-12-29T21:57:46.810Z,95872.91
2022-12-29T22:00:32.188Z,95860.00
2022-12-29T22:03:23.024Z,95872.25
2022-12-29T22:06:09.643Z,95863.72
2022-12-29T22:08:54.652Z,95861.47
2022-12-29T22:11:39.935Z,95864.75
2022-12-29T22:14:06.845Z,95861.47
2022-12-29T22:16:33.345Z,95852.63
2022-12-29T22:18:59.788Z,95847.72
2022-12-29T22:21:26.295Z,95851.50
2022-12-29T22:23:52.718Z,95841.88
2022-12-29T22:26:19.216Z,95829.13
2022-12-29T22:28:48.507Z,95824.22
2022-12-29T22:31:21.923Z,95820.28
2022-12-29T22:33:48.400Z,95828.31
2022-12-29T22:36:14.992Z,95819.63
2022-12-29T22:38:41.427Z,95828.63
2022-12-29T22:41:07.881Z,95819.97
2022-12-29T22:43:34.315Z,95827.31
2022-12-29T22:46:04.341Z,95810.34
2022-12-29T22:48:34.493Z,95822.25
2022-12-29T22:51:01.017Z,95827.97
2022-12-29T22:53:27.516Z,95838.28
2022-12-29T22:56:03.964Z,95833.19
2022-12-29T22:58:30.573Z,95839.91
2022-12-29T23:00:57.023Z,95841.03
2022-12-29T23:03:23.577Z,95843.00
2022-12-29T23:06:00.827Z,95851.50
2022-12-29T23:08:37.838Z,95853.47
2022-12-29T23:11:05.625Z,95856.56
2022-12-29T23:13:32.059Z,95842.53
2022-12-29T23:15:58.899Z,95849.41
2022-12-29T23:18:26.015Z,95848.44
2022-12-29T23:20:52.519Z,95850.88
2022-12-29T23:23:44.855Z,95850.41
2022-12-29T23:26:15.507Z,95853.34
2022-12-29T23:28:42.586Z,95843.72
2022-12-29T23:31:09.282Z,95847.78
2022-12-29T23:33:35.850Z,95863.19
2022-12-29T23:36:02.267Z,95858.56
2022-12-29T23:38:28.701Z,95856.63
2022-12-29T23:40:55.310Z,95849.44
2022-12-29T23:43:21.760Z,95847.66
2022-12-29T23:45:51.071Z,95859.41
2022-12-29T23:48:17.908Z,95852.38
2022-12-29T23:50:44.441Z,95845.38
2022-12-29T23:53:11.378Z,95843.41
2022-12-29T23:55:40.990Z,95848.47
2022-12-29T23:58:07.727Z,95847.66
